Steve C — WDI2267 — position and weather

sailwx.info

Track history (hours):
 
Tides and Currents Weather Stations Pressure Air Temp Water Temp Dewpoint Dewpoint Depression Visibility Wind Speed Wind Dir Waves Ship Positions

Steve C

Owner: Rankin Fish, Inc., Astoria, OR. More information available from US FCC via Universal Licensing System and Coast Guard Vessel Documentation Center.

Last reported at 2018-May-21 13:00 UTC. Time now 2018-May-22 10:17 UTC.
Position N 46°52' W 124°42'.

Length 24 m.

Type: Fishing. MMSI: 367676420.

Date/timePositionNaut miles runAvg speedWind from/ knotsBaromVisibWave heightAir tempDewpointWater temp
2018-May-21 13:00N 46°52' W 124°42'6 9.2
2018-May-21 12:18N 46°46' W 124°36'5 9.4
2018-May-21 11:47N 46°42' W 124°32'3 9.2
2018-May-21 11:30N 46°40' W 124°30'5 9.1
2018-May-21 11:00N 46°37' W 124°26'5 9.4
2018-May-21 10:30N 46°33' W 124°22'7 9.0
2018-May-21 09:44N 46°27' W 124°17'4 8.8
2018-May-21 09:16N 46°23' W 124°14'2 9.1
2018-May-21 09:00N 46°21' W 124°12'5 9.4
2018-May-21 08:30N 46°17' W 124°09'5 9.3
2018-May-21 08:00N 46°16' W 124°02'510.3
2018-May-21 07:29N 46°12' W 123°56'3 6.6
2018-May-21 06:58N 46°11' W 123°51'0 0.0
2018-May-21 06:28N 46°11' W 123°51'0 0.0
2018-May-21 05:55N 46°11' W 123°51'0 0.0
2018-May-21 05:28N 46°11' W 123°51'0 0.0
2018-May-21 04:58N 46°11' W 123°51'0 0.0
2018-May-21 04:28N 46°11' W 123°51'0 0.0
2018-May-21 03:58N 46°11' W 123°51'0 0.0
2018-May-21 03:28N 46°11' W 123°51'0 0.0
2018-May-21 02:58N 46°11' W 123°51'0 0.0
2018-May-21 02:28N 46°11' W 123°51'0 0.0
2018-May-21 01:37N 46°11' W 123°51'0 0.0
2018-May-21 01:28N 46°11' W 123°51'0 0.0
2018-May-21 00:58N 46°11' W 123°51'0 0.0
2018-May-21 00:28N 46°11' W 123°51'0 0.0
2018-May-20 23:58N 46°11' W 123°51'0 0.0
2018-May-20 23:28N 46°11' W 123°51'0 0.0
2018-May-20 22:52N 46°11' W 123°51'0 0.0
2018-May-20 22:28N 46°11' W 123°51'0 0.1
2018-May-20 22:00N 46°11' W 123°52'3 5.2
2018-May-20 21:30N 46°10' W 123°55'0 0.0
2018-May-20 21:00N 46°10' W 123°55'0 0.0
2018-May-20 20:30N 46°10' W 123°55'0 0.0
2018-May-20 20:00N 46°10' W 123°55'0 0.0
2018-May-20 19:30N 46°10' W 123°55'0 0.0
2018-May-20 19:00N 46°10' W 123°55'0 0.0
2018-May-20 18:30N 46°10' W 123°55'0 0.0
2018-May-20 17:36N 46°10' W 123°55'0 0.0
2018-May-20 17:30N 46°10' W 123°55'0 0.0
2018-May-20 16:51N 46°10' W 123°55'0 0.0
2018-May-20 16:21N 46°10' W 123°55'0 0.0
2018-May-20 16:00N 46°10' W 123°55'0 0.0
2018-May-20 15:30N 46°10' W 123°55'0 0.0
2018-May-20 15:00N 46°10' W 123°55'0 0.0
2018-May-20 14:30N 46°10' W 123°55'0 0.0
2018-May-20 14:00N 46°10' W 123°55'0 0.0
2018-May-20 13:30N 46°10' W 123°55'0 0.0
2018-May-20 12:57N 46°10' W 123°55'0 0.0
2018-May-20 12:30N 46°10' W 123°55'0 0.0
2018-May-20 12:00N 46°10' W 123°55'0 0.0
2018-May-20 11:30N 46°10' W 123°55'0 0.0
2018-May-20 11:00N 46°10' W 123°55'0 0.0
2018-May-20 10:30N 46°10' W 123°55'0 0.0
2018-May-20 10:00N 46°10' W 123°55'0 0.0
2018-May-20 06:57N 46°10' W 123°55'0 0.0
2018-May-20 06:30N 46°10' W 123°55'0 0.0
2018-May-20 06:00N 46°10' W 123°55'0 0.0
2018-May-20 05:09N 46°10' W 123°55'0 0.0
2018-May-20 05:00N 46°10' W 123°55'0 0.0
2018-May-20 04:30N 46°10' W 123°55'0 0.0
2018-May-20 03:45N 46°10' W 123°55'0 0.0
2018-May-20 03:30N 46°10' W 123°55'0 0.0
2018-May-20 03:00N 46°10' W 123°55'0 0.2
2018-May-20 02:28N 46°10' W 123°55'0 0.0
2018-May-20 01:58N 46°10' W 123°55'0 0.0
2018-May-20 01:28N 46°10' W 123°55'0 0.0
2018-May-20 00:58N 46°10' W 123°55'0 0.0
2018-May-20 00:28N 46°10' W 123°55'0 0.0
2018-May-19 23:58N 46°10' W 123°55'0 0.0
2018-May-19 23:28N 46°10' W 123°55'0 0.0
2018-May-19 22:58N 46°10' W 123°55'0 0.0
2018-May-19 22:28N 46°10' W 123°55'0 0.0
2018-May-19 21:58N 46°10' W 123°55'0 0.0
2018-May-19 21:28N 46°10' W 123°55'0 0.0
2018-May-19 20:58N 46°10' W 123°55'0 0.0
2018-May-19 20:28N 46°10' W 123°55'0 0.0
2018-May-19 19:55N 46°10' W 123°55'0 0.0
2018-May-19 19:28N 46°10' W 123°55'0 0.2
2018-May-19 18:48N 46°10' W 123°55'0 0.0
2018-May-19 18:30N 46°10' W 123°55'0 0.0
2018-May-19 18:00N 46°10' W 123°55'0 0.0
2018-May-19 17:30N 46°10' W 123°55'0 0.0
2018-May-19 17:00N 46°10' W 123°55'0 0.0
2018-May-19 16:30N 46°10' W 123°55'0 0.0
2018-May-19 15:57N 46°10' W 123°55'0 0.0
2018-May-19 15:24N 46°10' W 123°55'0 0.0
2018-May-19 15:00N 46°10' W 123°55'0 0.0
2018-May-19 14:30N 46°10' W 123°55'0 0.0
2018-May-19 14:00N 46°10' W 123°55'0 0.0
2018-May-19 13:30N 46°10' W 123°55'0 0.0
2018-May-19 13:00N 46°10' W 123°55'0 0.0
2018-May-19 12:30N 46°10' W 123°55'0 0.0
2018-May-19 12:00N 46°10' W 123°55'0 0.0
2018-May-19 11:30N 46°10' W 123°55'0 0.0
2018-May-19 11:00N 46°10' W 123°55'0 0.0
2018-May-19 10:30N 46°10' W 123°55'0 0.0
2018-May-19 10:00N 46°10' W 123°55'0 0.0
2018-May-19 09:30N 46°10' W 123°55'0 0.0
2018-May-19 09:00N 46°10' W 123°55'0 0.0
2018-May-19 08:30N 46°10' W 123°55'0 0.0
2018-May-19 08:00N 46°10' W 123°55'0 0.0
2018-May-19 07:30N 46°10' W 123°55'0 0.0
2018-May-19 06:48N 46°10' W 123°55'0 0.0
2018-May-19 06:30N 46°10' W 123°55'0 0.0
2018-May-19 06:00N 46°10' W 123°55'0 0.0
2018-May-19 05:30N 46°10' W 123°55'0 0.0
2018-May-19 05:00N 46°10' W 123°55'0 0.0
2018-May-19 04:30N 46°10' W 123°55'0 0.0
2018-May-19 03:42N 46°10' W 123°55'0 0.0
2018-May-19 03:30N 46°10' W 123°55'0 0.0
2018-May-19 03:00N 46°10' W 123°55'0 0.0
2018-May-19 02:30N 46°10' W 123°55'0 0.0
2018-May-19 01:51N 46°10' W 123°55'0 0.0
2018-May-19 01:09N 46°10' W 123°55'0 0.0
2018-May-19 01:00N 46°10' W 123°55'3 0.1
2018-May-17 20:12N 46°11' W 123°51'0 0.0
2018-May-17 20:00N 46°11' W 123°51'0 0.0
2018-May-17 19:31N 46°11' W 123°51'0 0.0
2018-May-17 19:00N 46°11' W 123°51'0 0.0
2018-May-17 18:30N 46°11' W 123°51'0 0.0
2018-May-17 18:00N 46°11' W 123°51'0 0.0
2018-May-17 17:30N 46°11' W 123°51'0 0.0
2018-May-17 17:00N 46°11' W 123°51'0 0.0
2018-May-17 16:30N 46°11' W 123°51'0 0.0
2018-May-17 16:00N 46°11' W 123°51'0 0.0
2018-May-17 15:30N 46°11' W 123°51'0 0.0
2018-May-17 15:00N 46°11' W 123°51'0 0.0
2018-May-17 14:30N 46°11' W 123°51'0 0.0
2018-May-17 14:00N 46°11' W 123°51'0 0.0
2018-May-17 13:28N 46°11' W 123°51'0 0.0
2018-May-17 13:00N 46°11' W 123°51'0 0.0
2018-May-17 12:30N 46°11' W 123°51'0 0.0
2018-May-17 12:00N 46°11' W 123°51'0 0.0
2018-May-17 11:30N 46°11' W 123°51'0 0.0
2018-May-17 11:00N 46°11' W 123°51'0 0.0
2018-May-17 10:30N 46°11' W 123°51'0 0.0
2018-May-17 10:00N 46°11' W 123°51'0 0.0
2018-May-17 09:31N 46°11' W 123°51'0 0.0
2018-May-17 09:00N 46°11' W 123°51'0 0.0
2018-May-17 08:30N 46°11' W 123°51'0 0.0
2018-May-17 08:00N 46°11' W 123°51'0 0.0
2018-May-17 07:21N 46°11' W 123°51'0 0.0
2018-May-17 07:00N 46°11' W 123°51'0 0.0
2018-May-17 06:30N 46°11' W 123°51'0 0.0
2018-May-17 06:01N 46°11' W 123°51'0 0.0
2018-May-17 05:15N 46°11' W 123°51'0 0.0
2018-May-17 05:00N 46°11' W 123°51'0 0.0
2018-May-17 04:30N 46°11' W 123°51'0 0.4
2018-May-17 04:00N 46°11' W 123°52'4 7.4
2018-May-17 03:29N 46°13' W 123°57'3 6.5
2018-May-17 03:00N 46°15' W 124°00'3 4.6
2018-May-17 02:16N 46°16' W 124°05'1 4.4
2018-May-17 02:00N 46°16' W 124°07'3 6.3
2018-May-17 01:29N 46°17' W 124°11'4 7.5
2018-May-17 01:00N 46°20' W 124°14'8 7.6
2018-May-16 23:57N 46°27' W 124°19'4 8.3
2018-May-16 23:30N 46°31' W 124°22'4 8.3
2018-May-16 22:59N 46°34' W 124°26'4 7.6
2018-May-16 22:30N 46°37' W 124°29'4 8.0
2018-May-16 22:00N 46°40' W 124°32'4 8.2
2018-May-16 21:30N 46°44' W 124°35'4 8.2
2018-May-16 21:00N 46°47' W 124°39'4 8.1
2018-May-16 20:29N 46°51' W 124°42'4 7.9
2018-May-16 19:57N 46°55' W 124°45'4 7.8
2018-May-16 19:29N 46°58' W 124°48'  
2018-May-12 18:06N 48°22' W 124°49'2 9.7
2018-May-12 17:51N 48°24' W 124°46'3 9.1
2018-May-12 17:29N 48°24' W 124°41'4 8.6
2018-May-12 17:00N 48°23' W 124°35'1 2.8
2018-May-12 16:30N 48°22' W 124°37'0 0.0
2018-May-12 16:00N 48°22' W 124°37'2 4.6
2018-May-12 15:30N 48°22' W 124°33'510.5
2018-May-12 15:00N 48°21' W 124°26'3410.6
2018-May-12 11:48N 48°12' W 123°37'4 9.8
2018-May-12 11:21N 48°14' W 123°31'5 9.3
2018-May-12 10:51N 48°14' W 123°24'4 9.1
2018-May-12 10:26N 48°14' W 123°18'8 9.0
2018-May-12 09:35N 48°17' W 123°07'1 8.6
2018-May-12 09:28N 48°17' W 123°06'18 8.2
2018-May-12 07:19N 48°28' W 122°45'3 7.8
2018-May-12 07:00N 48°30' W 122°43'4 8.0
2018-May-12 06:28N 48°34' W 122°40'5 7.8
2018-May-12 05:50N 48°38' W 122°36'  
Track history (hours):
 
Tides and Currents Weather Stations Pressure Air Temp Water Temp Dewpoint Dewpoint Depression Visibility Wind Speed Wind Dir Waves Ship Positions

Steve C

Owner: Rankin Fish, Inc., Astoria, OR. More information available from US FCC via Universal Licensing System and Coast Guard Vessel Documentation Center.

Last reported at 2018-May-21 13:00 UTC. Time now 2018-May-22 10:17 UTC.
Position N 46°52' W 124°42'.

Length 24 m.

Type: Fishing. MMSI: 367676420.

Date/timePositionNaut miles runAvg speedWind from/ knotsBaromVisibWave heightAir tempDewpointWater temp
2018-May-21 13:00N 46°52' W 124°42'6 9.2
2018-May-21 12:18N 46°46' W 124°36'5 9.4
2018-May-21 11:47N 46°42' W 124°32'3 9.2
2018-May-21 11:30N 46°40' W 124°30'5 9.1
2018-May-21 11:00N 46°37' W 124°26'5 9.4
2018-May-21 10:30N 46°33' W 124°22'7 9.0
2018-May-21 09:44N 46°27' W 124°17'4 8.8
2018-May-21 09:16N 46°23' W 124°14'2 9.1
2018-May-21 09:00N 46°21' W 124°12'5 9.4
2018-May-21 08:30N 46°17' W 124°09'5 9.3
2018-May-21 08:00N 46°16' W 124°02'510.3
2018-May-21 07:29N 46°12' W 123°56'3 6.6
2018-May-21 06:58N 46°11' W 123°51'0 0.0
2018-May-21 06:28N 46°11' W 123°51'0 0.0
2018-May-21 05:55N 46°11' W 123°51'0 0.0
2018-May-21 05:28N 46°11' W 123°51'0 0.0
2018-May-21 04:58N 46°11' W 123°51'0 0.0
2018-May-21 04:28N 46°11' W 123°51'0 0.0
2018-May-21 03:58N 46°11' W 123°51'0 0.0
2018-May-21 03:28N 46°11' W 123°51'0 0.0
2018-May-21 02:58N 46°11' W 123°51'0 0.0
2018-May-21 02:28N 46°11' W 123°51'0 0.0
2018-May-21 01:37N 46°11' W 123°51'0 0.0
2018-May-21 01:28N 46°11' W 123°51'0 0.0
2018-May-21 00:58N 46°11' W 123°51'0 0.0
2018-May-21 00:28N 46°11' W 123°51'0 0.0
2018-May-20 23:58N 46°11' W 123°51'0 0.0
2018-May-20 23:28N 46°11' W 123°51'0 0.0
2018-May-20 22:52N 46°11' W 123°51'0 0.0
2018-May-20 22:28N 46°11' W 123°51'0 0.1
2018-May-20 22:00N 46°11' W 123°52'3 5.2
2018-May-20 21:30N 46°10' W 123°55'0 0.0
2018-May-20 21:00N 46°10' W 123°55'0 0.0
2018-May-20 20:30N 46°10' W 123°55'0 0.0
2018-May-20 20:00N 46°10' W 123°55'0 0.0
2018-May-20 19:30N 46°10' W 123°55'0 0.0
2018-May-20 19:00N 46°10' W 123°55'0 0.0
2018-May-20 18:30N 46°10' W 123°55'0 0.0
2018-May-20 17:36N 46°10' W 123°55'0 0.0
2018-May-20 17:30N 46°10' W 123°55'0 0.0
2018-May-20 16:51N 46°10' W 123°55'0 0.0
2018-May-20 16:21N 46°10' W 123°55'0 0.0
2018-May-20 16:00N 46°10' W 123°55'0 0.0
2018-May-20 15:30N 46°10' W 123°55'0 0.0
2018-May-20 15:00N 46°10' W 123°55'0 0.0
2018-May-20 14:30N 46°10' W 123°55'0 0.0
2018-May-20 14:00N 46°10' W 123°55'0 0.0
2018-May-20 13:30N 46°10' W 123°55'0 0.0
2018-May-20 12:57N 46°10' W 123°55'0 0.0
2018-May-20 12:30N 46°10' W 123°55'0 0.0
2018-May-20 12:00N 46°10' W 123°55'0 0.0
2018-May-20 11:30N 46°10' W 123°55'0 0.0
2018-May-20 11:00N 46°10' W 123°55'0 0.0
2018-May-20 10:30N 46°10' W 123°55'0 0.0
2018-May-20 10:00N 46°10' W 123°55'0 0.0
2018-May-20 06:57N 46°10' W 123°55'0 0.0
2018-May-20 06:30N 46°10' W 123°55'0 0.0
2018-May-20 06:00N 46°10' W 123°55'0 0.0
2018-May-20 05:09N 46°10' W 123°55'0 0.0
2018-May-20 05:00N 46°10' W 123°55'0 0.0
2018-May-20 04:30N 46°10' W 123°55'0 0.0
2018-May-20 03:45N 46°10' W 123°55'0 0.0
2018-May-20 03:30N 46°10' W 123°55'0 0.0
2018-May-20 03:00N 46°10' W 123°55'0 0.2
2018-May-20 02:28N 46°10' W 123°55'0 0.0
2018-May-20 01:58N 46°10' W 123°55'0 0.0
2018-May-20 01:28N 46°10' W 123°55'0 0.0
2018-May-20 00:58N 46°10' W 123°55'0 0.0
2018-May-20 00:28N 46°10' W 123°55'0 0.0
2018-May-19 23:58N 46°10' W 123°55'0 0.0
2018-May-19 23:28N 46°10' W 123°55'0 0.0
2018-May-19 22:58N 46°10' W 123°55'0 0.0
2018-May-19 22:28N 46°10' W 123°55'0 0.0
2018-May-19 21:58N 46°10' W 123°55'0 0.0
2018-May-19 21:28N 46°10' W 123°55'0 0.0
2018-May-19 20:58N 46°10' W 123°55'0 0.0
2018-May-19 20:28N 46°10' W 123°55'0 0.0
2018-May-19 19:55N 46°10' W 123°55'0 0.0
2018-May-19 19:28N 46°10' W 123°55'0 0.2
2018-May-19 18:48N 46°10' W 123°55'0 0.0
2018-May-19 18:30N 46°10' W 123°55'0 0.0
2018-May-19 18:00N 46°10' W 123°55'0 0.0
2018-May-19 17:30N 46°10' W 123°55'0 0.0
2018-May-19 17:00N 46°10' W 123°55'0 0.0
2018-May-19 16:30N 46°10' W 123°55'0 0.0
2018-May-19 15:57N 46°10' W 123°55'0 0.0
2018-May-19 15:24N 46°10' W 123°55'0 0.0
2018-May-19 15:00N 46°10' W 123°55'0 0.0
2018-May-19 14:30N 46°10' W 123°55'0 0.0
2018-May-19 14:00N 46°10' W 123°55'0 0.0
2018-May-19 13:30N 46°10' W 123°55'0 0.0
2018-May-19 13:00N 46°10' W 123°55'0 0.0
2018-May-19 12:30N 46°10' W 123°55'0 0.0
2018-May-19 12:00N 46°10' W 123°55'0 0.0
2018-May-19 11:30N 46°10' W 123°55'0 0.0
2018-May-19 11:00N 46°10' W 123°55'0 0.0
2018-May-19 10:30N 46°10' W 123°55'0 0.0
2018-May-19 10:00N 46°10' W 123°55'0 0.0
2018-May-19 09:30N 46°10' W 123°55'0 0.0
2018-May-19 09:00N 46°10' W 123°55'0 0.0
2018-May-19 08:30N 46°10' W 123°55'0 0.0
2018-May-19 08:00N 46°10' W 123°55'0 0.0
2018-May-19 07:30N 46°10' W 123°55'0 0.0
2018-May-19 06:48N 46°10' W 123°55'0 0.0
2018-May-19 06:30N 46°10' W 123°55'0 0.0
2018-May-19 06:00N 46°10' W 123°55'0 0.0
2018-May-19 05:30N 46°10' W 123°55'0 0.0
2018-May-19 05:00N 46°10' W 123°55'0 0.0
2018-May-19 04:30N 46°10' W 123°55'0 0.0
2018-May-19 03:42N 46°10' W 123°55'0 0.0
2018-May-19 03:30N 46°10' W 123°55'0 0.0
2018-May-19 03:00N 46°10' W 123°55'0 0.0
2018-May-19 02:30N 46°10' W 123°55'0 0.0
2018-May-19 01:51N 46°10' W 123°55'0 0.0
2018-May-19 01:09N 46°10' W 123°55'0 0.0
2018-May-19 01:00N 46°10' W 123°55'3 0.1
2018-May-17 20:12N 46°11' W 123°51'0 0.0
2018-May-17 20:00N 46°11' W 123°51'0 0.0
2018-May-17 19:31N 46°11' W 123°51'0 0.0
2018-May-17 19:00N 46°11' W 123°51'0 0.0
2018-May-17 18:30N 46°11' W 123°51'0 0.0
2018-May-17 18:00N 46°11' W 123°51'0 0.0
2018-May-17 17:30N 46°11' W 123°51'0 0.0
2018-May-17 17:00N 46°11' W 123°51'0 0.0
2018-May-17 16:30N 46°11' W 123°51'0 0.0
2018-May-17 16:00N 46°11' W 123°51'0 0.0
2018-May-17 15:30N 46°11' W 123°51'0 0.0
2018-May-17 15:00N 46°11' W 123°51'0 0.0
2018-May-17 14:30N 46°11' W 123°51'0 0.0
2018-May-17 14:00N 46°11' W 123°51'0 0.0
2018-May-17 13:28N 46°11' W 123°51'0 0.0
2018-May-17 13:00N 46°11' W 123°51'0 0.0
2018-May-17 12:30N 46°11' W 123°51'0 0.0
2018-May-17 12:00N 46°11' W 123°51'0 0.0
2018-May-17 11:30N 46°11' W 123°51'0 0.0
2018-May-17 11:00N 46°11' W 123°51'0 0.0
2018-May-17 10:30N 46°11' W 123°51'0 0.0
2018-May-17 10:00N 46°11' W 123°51'0 0.0
2018-May-17 09:31N 46°11' W 123°51'0 0.0
2018-May-17 09:00N 46°11' W 123°51'0 0.0
2018-May-17 08:30N 46°11' W 123°51'0 0.0
2018-May-17 08:00N 46°11' W 123°51'0 0.0
2018-May-17 07:21N 46°11' W 123°51'0 0.0
2018-May-17 07:00N 46°11' W 123°51'0 0.0
2018-May-17 06:30N 46°11' W 123°51'0 0.0
2018-May-17 06:01N 46°11' W 123°51'0 0.0
2018-May-17 05:15N 46°11' W 123°51'0 0.0
2018-May-17 05:00N 46°11' W 123°51'0 0.0
2018-May-17 04:30N 46°11' W 123°51'0 0.4
2018-May-17 04:00N 46°11' W 123°52'4 7.4
2018-May-17 03:29N 46°13' W 123°57'3 6.5
2018-May-17 03:00N 46°15' W 124°00'3 4.6
2018-May-17 02:16N 46°16' W 124°05'1 4.4
2018-May-17 02:00N 46°16' W 124°07'3 6.3
2018-May-17 01:29N 46°17' W 124°11'4 7.5
2018-May-17 01:00N 46°20' W 124°14'8 7.6
2018-May-16 23:57N 46°27' W 124°19'4 8.3
2018-May-16 23:30N 46°31' W 124°22'4 8.3
2018-May-16 22:59N 46°34' W 124°26'4 7.6
2018-May-16 22:30N 46°37' W 124°29'4 8.0
2018-May-16 22:00N 46°40' W 124°32'4 8.2
2018-May-16 21:30N 46°44' W 124°35'4 8.2
2018-May-16 21:00N 46°47' W 124°39'4 8.1
2018-May-16 20:29N 46°51' W 124°42'4 7.9
2018-May-16 19:57N 46°55' W 124°45'4 7.8
2018-May-16 19:29N 46°58' W 124°48'  
2018-May-12 18:06N 48°22' W 124°49'2 9.7
2018-May-12 17:51N 48°24' W 124°46'3 9.1
2018-May-12 17:29N 48°24' W 124°41'4 8.6
2018-May-12 17:00N 48°23' W 124°35'1 2.8
2018-May-12 16:30N 48°22' W 124°37'0 0.0
2018-May-12 16:00N 48°22' W 124°37'2 4.6
2018-May-12 15:30N 48°22' W 124°33'510.5
2018-May-12 15:00N 48°21' W 124°26'3410.6
2018-May-12 11:48N 48°12' W 123°37'4 9.8
2018-May-12 11:21N 48°14' W 123°31'5 9.3
2018-May-12 10:51N 48°14' W 123°24'4 9.1
2018-May-12 10:26N 48°14' W 123°18'8 9.0
2018-May-12 09:35N 48°17' W 123°07'1 8.6
2018-May-12 09:28N 48°17' W 123°06'18 8.2
2018-May-12 07:19N 48°28' W 122°45'3 7.8
2018-May-12 07:00N 48°30' W 122°43'4 8.0
2018-May-12 06:28N 48°34' W 122°40'5 7.8
2018-May-12 05:50N 48°38' W 122°36'  

Dump ship's entire track history